sensor_id;sensor_type;location;lat;lon;timestamp;P1;durP1;ratioP1;P2;durP2;ratioP2
40847;SDS011;26570;50.962;5.340;2024-03-17T00:01:14;33.77;;;18.83;;
40847;SDS011;26570;50.962;5.340;2024-03-17T00:03:59;33.80;;;18.60;;
40847;SDS011;26570;50.962;5.340;2024-03-17T00:06:45;34.00;;;18.07;;
40847;SDS011;26570;50.962;5.340;2024-03-17T00:09:33;33.53;;;18.23;;
40847;SDS011;26570;50.962;5.340;2024-03-17T00:12:40;35.90;;;17.77;;
40847;SDS011;26570;50.962;5.340;2024-03-17T00:15:26;32.03;;;18.67;;
40847;SDS011;26570;50.962;5.340;2024-03-17T00:18:14;32.23;;;18.07;;
40847;SDS011;26570;50.962;5.340;2024-03-17T00:21:22;29.70;;;18.20;;
40847;SDS011;26570;50.962;5.340;2024-03-17T00:24:10;25.27;;;17.37;;
40847;SDS011;26570;50.962;5.340;2024-03-17T00:27:01;26.50;;;17.50;;
40847;SDS011;26570;50.962;5.340;2024-03-17T00:29:46;28.07;;;17.57;;
40847;SDS011;26570;50.962;5.340;2024-03-17T00:32:31;30.13;;;16.17;;
40847;SDS011;26570;50.962;5.340;2024-03-17T00:35:46;27.88;;;16.10;;
40847;SDS011;26570;50.962;5.340;2024-03-17T00:38:31;25.80;;;16.60;;
40847;SDS011;26570;50.962;5.340;2024-03-17T00:41:19;32.00;;;16.37;;
40847;SDS011;26570;50.962;5.340;2024-03-17T00:44:28;26.50;;;16.47;;
40847;SDS011;26570;50.962;5.340;2024-03-17T00:47:19;26.13;;;16.33;;
40847;SDS011;26570;50.962;5.340;2024-03-17T00:50:27;29.70;;;15.97;;
40847;SDS011;26570;50.962;5.340;2024-03-17T00:53:14;25.90;;;16.40;;
40847;SDS011;26570;50.962;5.340;2024-03-17T00:56:00;25.67;;;15.57;;
40847;SDS011;26570;50.962;5.340;2024-03-17T00:58:46;28.70;;;15.33;;
40847;SDS011;26570;50.962;5.340;2024-03-17T01:01:32;28.47;;;16.07;;
40847;SDS011;26570;50.962;5.340;2024-03-17T01:04:17;26.80;;;15.93;;
40847;SDS011;26570;50.962;5.340;2024-03-17T01:07:25;24.77;;;16.07;;
40847;SDS011;26570;50.962;5.340;2024-03-17T01:10:10;26.23;;;15.33;;
40847;SDS011;26570;50.962;5.340;2024-03-17T01:12:56;27.87;;;15.30;;
40847;SDS011;26570;50.962;5.340;2024-03-17T01:15:41;25.93;;;15.57;;
40847;SDS011;26570;50.962;5.340;2024-03-17T01:18:27;26.10;;;15.63;;
40847;SDS011;26570;50.962;5.340;2024-03-17T01:21:35;26.80;;;15.27;;
40847;SDS011;26570;50.962;5.340;2024-03-17T01:24:21;26.77;;;16.10;;
40847;SDS011;26570;50.962;5.340;2024-03-17T01:27:06;25.37;;;14.97;;
40847;SDS011;26570;50.962;5.340;2024-03-17T01:29:53;21.57;;;14.20;;
40847;SDS011;26570;50.962;5.340;2024-03-17T01:32:38;26.17;;;14.57;;
40847;SDS011;26570;50.962;5.340;2024-03-17T01:35:23;28.50;;;16.07;;
40847;SDS011;26570;50.962;5.340;2024-03-17T01:38:09;24.37;;;15.13;;
40847;SDS011;26570;50.962;5.340;2024-03-17T01:41:37;23.03;;;14.90;;
40847;SDS011;26570;50.962;5.340;2024-03-17T01:44:23;22.30;;;15.60;;
40847;SDS011;26570;50.962;5.340;2024-03-17T01:47:12;27.00;;;16.27;;
40847;SDS011;26570;50.962;5.340;2024-03-17T01:49:58;26.70;;;16.97;;
40847;SDS011;26570;50.962;5.340;2024-03-17T01:52:43;29.23;;;15.40;;
40847;SDS011;26570;50.962;5.340;2024-03-17T01:55:53;29.90;;;16.63;;
40847;SDS011;26570;50.962;5.340;2024-03-17T01:58:46;28.10;;;16.50;;
40847;SDS011;26570;50.962;5.340;2024-03-17T02:01:34;28.60;;;17.10;;
40847;SDS011;26570;50.962;5.340;2024-03-17T02:04:42;39.10;;;18.40;;
40847;SDS011;26570;50.962;5.340;2024-03-17T02:07:28;25.37;;;16.60;;
40847;SDS011;26570;50.962;5.340;2024-03-17T02:10:16;26.80;;;16.73;;
40847;SDS011;26570;50.962;5.340;2024-03-17T02:13:37;27.70;;;17.13;;
40847;SDS011;26570;50.962;5.340;2024-03-17T02:16:23;30.23;;;17.63;;
40847;SDS011;26570;50.962;5.340;2024-03-17T02:19:08;30.97;;;18.00;;
40847;SDS011;26570;50.962;5.340;2024-03-17T02:22:22;25.83;;;16.63;;
40847;SDS011;26570;50.962;5.340;2024-03-17T02:25:09;25.33;;;16.83;;
40847;SDS011;26570;50.962;5.340;2024-03-17T02:27:55;28.33;;;16.80;;
40847;SDS011;26570;50.962;5.340;2024-03-17T02:30:43;23.33;;;15.67;;
40847;SDS011;26570;50.962;5.340;2024-03-17T02:33:34;30.00;;;16.60;;
40847;SDS011;26570;50.962;5.340;2024-03-17T02:36:42;23.77;;;15.70;;
40847;SDS011;26570;50.962;5.340;2024-03-17T02:39:31;27.90;;;14.97;;
40847;SDS011;26570;50.962;5.340;2024-03-17T02:42:18;24.40;;;14.60;;
40847;SDS011;26570;50.962;5.340;2024-03-17T02:45:26;25.00;;;13.90;;
40847;SDS011;26570;50.962;5.340;2024-03-17T02:48:14;24.17;;;13.50;;
40847;SDS011;26570;50.962;5.340;2024-03-17T02:51:02;24.30;;;14.17;;
40847;SDS011;26570;50.962;5.340;2024-03-17T02:53:48;18.90;;;12.30;;
40847;SDS011;26570;50.962;5.340;2024-03-17T02:56:34;17.83;;;12.70;;
40847;SDS011;26570;50.962;5.340;2024-03-17T02:59:46;16.73;;;11.40;;
40847;SDS011;26570;50.962;5.340;2024-03-17T03:02:33;16.50;;;10.97;;
40847;SDS011;26570;50.962;5.340;2024-03-17T03:05:19;17.93;;;10.87;;
40847;SDS011;26570;50.962;5.340;2024-03-17T03:08:05;15.73;;;10.20;;
40847;SDS011;26570;50.962;5.340;2024-03-17T03:10:51;17.43;;;10.60;;
40847;SDS011;26570;50.962;5.340;2024-03-17T03:13:39;16.73;;;10.70;;
40847;SDS011;26570;50.962;5.340;2024-03-17T03:16:25;14.70;;;9.47;;
40847;SDS011;26570;50.962;5.340;2024-03-17T03:19:10;13.27;;;9.67;;
40847;SDS011;26570;50.962;5.340;2024-03-17T03:21:56;15.17;;;10.13;;
40847;SDS011;26570;50.962;5.340;2024-03-17T03:24:41;15.77;;;9.20;;
40847;SDS011;26570;50.962;5.340;2024-03-17T03:27:50;16.23;;;9.53;;
40847;SDS011;26570;50.962;5.340;2024-03-17T03:30:35;14.73;;;9.07;;
40847;SDS011;26570;50.962;5.340;2024-03-17T03:33:21;13.37;;;8.43;;
40847;SDS011;26570;50.962;5.340;2024-03-17T03:36:13;14.47;;;8.40;;
40847;SDS011;26570;50.962;5.340;2024-03-17T03:38:59;13.65;;;9.30;;
40847;SDS011;26570;50.962;5.340;2024-03-17T03:41:44;15.20;;;8.93;;
40847;SDS011;26570;50.962;5.340;2024-03-17T03:44:29;14.47;;;9.43;;
40847;SDS011;26570;50.962;5.340;2024-03-17T03:47:14;16.30;;;9.03;;
40847;SDS011;26570;50.962;5.340;2024-03-17T03:50:00;17.87;;;9.43;;
40847;SDS011;26570;50.962;5.340;2024-03-17T03:52:48;12.60;;;7.93;;
40847;SDS011;26570;50.962;5.340;2024-03-17T03:56:02;12.13;;;8.53;;
40847;SDS011;26570;50.962;5.340;2024-03-17T03:58:50;15.83;;;8.20;;
40847;SDS011;26570;50.962;5.340;2024-03-17T04:01:35;11.50;;;7.63;;
40847;SDS011;26570;50.962;5.340;2024-03-17T04:04:43;12.30;;;7.80;;
40847;SDS011;26570;50.962;5.340;2024-03-17T04:07:34;14.40;;;7.80;;
40847;SDS011;26570;50.962;5.340;2024-03-17T04:10:20;13.67;;;7.90;;
40847;SDS011;26570;50.962;5.340;2024-03-17T04:13:13;10.60;;;7.60;;
40847;SDS011;26570;50.962;5.340;2024-03-17T04:16:20;9.63;;;7.17;;
40847;SDS011;26570;50.962;5.340;2024-03-17T04:19:05;13.70;;;7.97;;
40847;SDS011;26570;50.962;5.340;2024-03-17T04:21:54;16.93;;;7.73;;
40847;SDS011;26570;50.962;5.340;2024-03-17T04:24:42;14.93;;;7.27;;
40847;SDS011;26570;50.962;5.340;2024-03-17T04:27:28;15.73;;;7.03;;
40847;SDS011;26570;50.962;5.340;2024-03-17T04:30:15;10.77;;;7.27;;
40847;SDS011;26570;50.962;5.340;2024-03-17T04:33:23;11.20;;;6.60;;
40847;SDS011;26570;50.962;5.340;2024-03-17T04:36:08;11.23;;;6.93;;
40847;SDS011;26570;50.962;5.340;2024-03-17T04:39:16;11.30;;;6.67;;
40847;SDS011;26570;50.962;5.340;2024-03-17T04:42:01;13.73;;;6.80;;
40847;SDS011;26570;50.962;5.340;2024-03-17T04:44:47;9.87;;;7.50;;
40847;SDS011;26570;50.962;5.340;2024-03-17T04:47:33;11.27;;;5.87;;
40847;SDS011;26570;50.962;5.340;2024-03-17T04:50:41;7.73;;;5.60;;
40847;SDS011;26570;50.962;5.340;2024-03-17T04:53:48;10.00;;;6.40;;
40847;SDS011;26570;50.962;5.340;2024-03-17T04:56:33;9.43;;;5.23;;
40847;SDS011;26570;50.962;5.340;2024-03-17T04:59:18;9.13;;;5.53;;
40847;SDS011;26570;50.962;5.340;2024-03-17T05:02:03;6.13;;;4.37;;
40847;SDS011;26570;50.962;5.340;2024-03-17T05:04:49;9.67;;;5.17;;
40847;SDS011;26570;50.962;5.340;2024-03-17T05:07:35;7.73;;;4.50;;
40847;SDS011;26570;50.962;5.340;2024-03-17T05:10:21;9.07;;;5.00;;
40847;SDS011;26570;50.962;5.340;2024-03-17T05:13:09;7.53;;;4.90;;
40847;SDS011;26570;50.962;5.340;2024-03-17T05:15:57;7.60;;;3.87;;
40847;SDS011;26570;50.962;5.340;2024-03-17T05:18:48;6.70;;;4.40;;
40847;SDS011;26570;50.962;5.340;2024-03-17T05:21:36;5.97;;;4.30;;
40847;SDS011;26570;50.962;5.340;2024-03-17T05:24:22;7.27;;;3.80;;
40847;SDS011;26570;50.962;5.340;2024-03-17T05:27:07;9.60;;;4.20;;
40847;SDS011;26570;50.962;5.340;2024-03-17T05:29:53;10.90;;;4.33;;
40847;SDS011;26570;50.962;5.340;2024-03-17T05:32:38;5.77;;;4.10;;
40847;SDS011;26570;50.962;5.340;2024-03-17T05:35:23;7.07;;;4.67;;
40847;SDS011;26570;50.962;5.340;2024-03-17T05:38:10;7.90;;;4.70;;
40847;SDS011;26570;50.962;5.340;2024-03-17T05:40:59;8.87;;;4.53;;
40847;SDS011;26570;50.962;5.340;2024-03-17T05:43:46;7.80;;;4.07;;
40847;SDS011;26570;50.962;5.340;2024-03-17T05:46:33;6.27;;;5.10;;
40847;SDS011;26570;50.962;5.340;2024-03-17T05:49:18;6.13;;;4.03;;
40847;SDS011;26570;50.962;5.340;2024-03-17T05:52:05;8.53;;;4.80;;
40847;SDS011;26570;50.962;5.340;2024-03-17T05:54:52;7.80;;;4.63;;
40847;SDS011;26570;50.962;5.340;2024-03-17T05:57:40;7.87;;;4.27;;
40847;SDS011;26570;50.962;5.340;2024-03-17T06:00:25;8.47;;;4.20;;
40847;SDS011;26570;50.962;5.340;2024-03-17T06:03:10;8.57;;;4.83;;
40847;SDS011;26570;50.962;5.340;2024-03-17T06:05:58;7.50;;;4.27;;
40847;SDS011;26570;50.962;5.340;2024-03-17T06:08:43;13.03;;;5.13;;
40847;SDS011;26570;50.962;5.340;2024-03-17T06:11:28;5.40;;;4.17;;
40847;SDS011;26570;50.962;5.340;2024-03-17T06:14:13;8.43;;;4.43;;
40847;SDS011;26570;50.962;5.340;2024-03-17T06:16:58;16.50;;;5.40;;
40847;SDS011;26570;50.962;5.340;2024-03-17T06:19:43;10.80;;;5.13;;
40847;SDS011;26570;50.962;5.340;2024-03-17T06:22:28;7.00;;;4.33;;
40847;SDS011;26570;50.962;5.340;2024-03-17T06:25:13;6.40;;;4.37;;
40847;SDS011;26570;50.962;5.340;2024-03-17T06:27:58;6.40;;;4.13;;
40847;SDS011;26570;50.962;5.340;2024-03-17T06:30:54;9.43;;;4.03;;
40847;SDS011;26570;50.962;5.340;2024-03-17T06:33:43;6.73;;;4.53;;
40847;SDS011;26570;50.962;5.340;2024-03-17T06:36:28;10.73;;;3.53;;
40847;SDS011;26570;50.962;5.340;2024-03-17T06:39:13;8.20;;;3.73;;
40847;SDS011;26570;50.962;5.340;2024-03-17T06:41:59;5.57;;;2.73;;
40847;SDS011;26570;50.962;5.340;2024-03-17T06:44:45;9.00;;;2.70;;
40847;SDS011;26570;50.962;5.340;2024-03-17T06:47:30;6.00;;;3.07;;
40847;SDS011;26570;50.962;5.340;2024-03-17T06:50:15;6.27;;;3.10;;
40847;SDS011;26570;50.962;5.340;2024-03-17T06:53:00;7.97;;;2.73;;
40847;SDS011;26570;50.962;5.340;2024-03-17T06:55:58;7.73;;;2.83;;
40847;SDS011;26570;50.962;5.340;2024-03-17T06:58:44;5.33;;;2.77;;
40847;SDS011;26570;50.962;5.340;2024-03-17T07:01:29;5.43;;;2.60;;
40847;SDS011;26570;50.962;5.340;2024-03-17T07:04:14;4.53;;;2.90;;
40847;SDS011;26570;50.962;5.340;2024-03-17T07:07:00;5.80;;;2.60;;
40847;SDS011;26570;50.962;5.340;2024-03-17T07:09:46;5.17;;;2.83;;
40847;SDS011;26570;50.962;5.340;2024-03-17T07:12:31;8.07;;;2.50;;
40847;SDS011;26570;50.962;5.340;2024-03-17T07:15:17;6.10;;;2.53;;
40847;SDS011;26570;50.962;5.340;2024-03-17T07:18:02;6.30;;;2.33;;
40847;SDS011;26570;50.962;5.340;2024-03-17T07:20:47;6.80;;;2.23;;
40847;SDS011;26570;50.962;5.340;2024-03-17T07:23:32;5.70;;;2.50;;
40847;SDS011;26570;50.962;5.340;2024-03-17T07:26:17;5.50;;;1.80;;
40847;SDS011;26570;50.962;5.340;2024-03-17T07:29:02;3.83;;;1.10;;
40847;SDS011;26570;50.962;5.340;2024-03-17T07:31:47;4.70;;;1.37;;
40847;SDS011;26570;50.962;5.340;2024-03-17T07:34:32;3.40;;;1.40;;
40847;SDS011;26570;50.962;5.340;2024-03-17T07:37:19;3.93;;;1.60;;
40847;SDS011;26570;50.962;5.340;2024-03-17T07:40:04;5.07;;;1.67;;
40847;SDS011;26570;50.962;5.340;2024-03-17T07:42:51;5.90;;;1.60;;
40847;SDS011;26570;50.962;5.340;2024-03-17T07:45:37;3.60;;;1.77;;
40847;SDS011;26570;50.962;5.340;2024-03-17T07:48:22;3.27;;;1.37;;
40847;SDS011;26570;50.962;5.340;2024-03-17T07:51:08;3.30;;;1.60;;
40847;SDS011;26570;50.962;5.340;2024-03-17T07:53:54;3.53;;;1.47;;
40847;SDS011;26570;50.962;5.340;2024-03-17T07:56:39;3.03;;;1.40;;
40847;SDS011;26570;50.962;5.340;2024-03-17T07:59:24;4.37;;;1.50;;
40847;SDS011;26570;50.962;5.340;2024-03-17T08:02:31;4.60;;;1.30;;
40847;SDS011;26570;50.962;5.340;2024-03-17T08:05:16;5.27;;;1.60;;
40847;SDS011;26570;50.962;5.340;2024-03-17T08:08:01;5.97;;;1.20;;
40847;SDS011;26570;50.962;5.340;2024-03-17T08:10:49;6.23;;;2.00;;
40847;SDS011;26570;50.962;5.340;2024-03-17T08:13:34;5.00;;;1.50;;
40847;SDS011;26570;50.962;5.340;2024-03-17T08:16:20;3.63;;;2.20;;
40847;SDS011;26570;50.962;5.340;2024-03-17T08:19:05;5.70;;;1.73;;
40847;SDS011;26570;50.962;5.340;2024-03-17T08:21:51;3.47;;;2.10;;
40847;SDS011;26570;50.962;5.340;2024-03-17T08:24:36;4.77;;;1.63;;
40847;SDS011;26570;50.962;5.340;2024-03-17T08:27:21;3.37;;;1.63;;
40847;SDS011;26570;50.962;5.340;2024-03-17T08:30:08;2.90;;;1.50;;
40847;SDS011;26570;50.962;5.340;2024-03-17T08:32:57;7.03;;;1.40;;
40847;SDS011;26570;50.962;5.340;2024-03-17T08:36:05;3.77;;;1.77;;
40847;SDS011;26570;50.962;5.340;2024-03-17T08:38:53;7.70;;;1.90;;
40847;SDS011;26570;50.962;5.340;2024-03-17T08:41:39;7.83;;;2.00;;
40847;SDS011;26570;50.962;5.340;2024-03-17T08:44:24;3.10;;;1.57;;
40847;SDS011;26570;50.962;5.340;2024-03-17T08:47:09;6.70;;;1.60;;
40847;SDS011;26570;50.962;5.340;2024-03-17T08:49:53;3.43;;;2.13;;
40847;SDS011;26570;50.962;5.340;2024-03-17T08:52:38;4.63;;;2.00;;
40847;SDS011;26570;50.962;5.340;2024-03-17T08:55:23;5.30;;;2.20;;
40847;SDS011;26570;50.962;5.340;2024-03-17T08:58:08;5.27;;;2.03;;
40847;SDS011;26570;50.962;5.340;2024-03-17T09:00:54;3.33;;;1.40;;
40847;SDS011;26570;50.962;5.340;2024-03-17T09:03:40;4.43;;;1.37;;
40847;SDS011;26570;50.962;5.340;2024-03-17T09:06:25;4.90;;;1.60;;
40847;SDS011;26570;50.962;5.340;2024-03-17T09:09:13;3.63;;;1.20;;
40847;SDS011;26570;50.962;5.340;2024-03-17T09:11:58;5.90;;;1.50;;
40847;SDS011;26570;50.962;5.340;2024-03-17T09:14:46;2.93;;;1.47;;
40847;SDS011;26570;50.962;5.340;2024-03-17T09:17:32;3.60;;;1.30;;
40847;SDS011;26570;50.962;5.340;2024-03-17T09:20:17;3.07;;;1.03;;
40847;SDS011;26570;50.962;5.340;2024-03-17T09:23:02;11.73;;;1.67;;
40847;SDS011;26570;50.962;5.340;2024-03-17T09:31:26;5.63;;;1.33;;
40847;SDS011;26570;50.962;5.340;2024-03-17T09:34:11;6.30;;;1.20;;
40847;SDS011;26570;50.962;5.340;2024-03-17T09:36:56;6.20;;;1.10;;
40847;SDS011;26570;50.962;5.340;2024-03-17T09:39:40;3.30;;;0.90;;
40847;SDS011;26570;50.962;5.340;2024-03-17T09:42:25;3.73;;;1.13;;
40847;SDS011;26570;50.962;5.340;2024-03-17T09:45:14;3.13;;;1.00;;
40847;SDS011;26570;50.962;5.340;2024-03-17T09:48:00;2.57;;;0.90;;
40847;SDS011;26570;50.962;5.340;2024-03-17T09:50:48;4.37;;;1.20;;
40847;SDS011;26570;50.962;5.340;2024-03-17T09:53:41;3.17;;;0.90;;
40847;SDS011;26570;50.962;5.340;2024-03-17T09:56:25;5.53;;;1.00;;
40847;SDS011;26570;50.962;5.340;2024-03-17T09:59:10;2.00;;;0.90;;
40847;SDS011;26570;50.962;5.340;2024-03-17T10:01:55;4.23;;;0.90;;
40847;SDS011;26570;50.962;5.340;2024-03-17T10:04:41;3.10;;;0.80;;
40847;SDS011;26570;50.962;5.340;2024-03-17T10:07:59;3.90;;;1.13;;
40847;SDS011;26570;50.962;5.340;2024-03-17T10:10:37;2.00;;;0.90;;
40847;SDS011;26570;50.962;5.340;2024-03-17T10:13:22;3.67;;;0.70;;
40847;SDS011;26570;50.962;5.340;2024-03-17T10:16:07;3.30;;;0.80;;
40847;SDS011;26570;50.962;5.340;2024-03-17T10:19:11;3.27;;;0.70;;
40847;SDS011;26570;50.962;5.340;2024-03-17T10:22:00;4.30;;;0.70;;
40847;SDS011;26570;50.962;5.340;2024-03-17T10:24:45;2.83;;;0.80;;
40847;SDS011;26570;50.962;5.340;2024-03-17T10:27:43;2.53;;;0.60;;
40847;SDS011;26570;50.962;5.340;2024-03-17T10:30:58;3.97;;;0.80;;
40847;SDS011;26570;50.962;5.340;2024-03-17T10:33:44;2.80;;;0.70;;
40847;SDS011;26570;50.962;5.340;2024-03-17T10:36:31;3.40;;;0.70;;
40847;SDS011;26570;50.962;5.340;2024-03-17T10:39:23;2.57;;;0.90;;
40847;SDS011;26570;50.962;5.340;2024-03-17T10:42:13;2.73;;;0.80;;
40847;SDS011;26570;50.962;5.340;2024-03-17T10:44:58;2.63;;;0.90;;
40847;SDS011;26570;50.962;5.340;2024-03-17T10:47:49;1.87;;;0.87;;
40847;SDS011;26570;50.962;5.340;2024-03-17T10:50:35;1.50;;;0.80;;
40847;SDS011;26570;50.962;5.340;2024-03-17T10:53:22;4.50;;;0.87;;
40847;SDS011;26570;50.962;5.340;2024-03-17T10:56:11;2.37;;;0.90;;
40847;SDS011;26570;50.962;5.340;2024-03-17T10:59:00;2.10;;;0.83;;
40847;SDS011;26570;50.962;5.340;2024-03-17T11:01:49;2.50;;;0.80;;
40847;SDS011;26570;50.962;5.340;2024-03-17T11:04:35;3.70;;;0.80;;
40847;SDS011;26570;50.962;5.340;2024-03-17T11:07:19;2.73;;;1.00;;
40847;SDS011;26570;50.962;5.340;2024-03-17T11:10:06;4.77;;;1.10;;
40847;SDS011;26570;50.962;5.340;2024-03-17T11:12:57;2.80;;;0.80;;
40847;SDS011;26570;50.962;5.340;2024-03-17T11:15:43;4.87;;;0.97;;
40847;SDS011;26570;50.962;5.340;2024-03-17T11:18:29;1.77;;;0.77;;
40847;SDS011;26570;50.962;5.340;2024-03-17T11:21:19;3.50;;;0.90;;
40847;SDS011;26570;50.962;5.340;2024-03-17T11:24:05;3.97;;;1.17;;
40847;SDS011;26570;50.962;5.340;2024-03-17T11:27:23;5.00;;;1.00;;
40847;SDS011;26570;50.962;5.340;2024-03-17T11:39:09;4.67;;;0.90;;
40847;SDS011;26570;50.962;5.340;2024-03-17T11:42:04;6.33;;;0.80;;
40847;SDS011;26570;50.962;5.340;2024-03-17T11:44:55;5.43;;;1.23;;
40847;SDS011;26570;50.962;5.340;2024-03-17T11:47:42;3.07;;;0.80;;
40847;SDS011;26570;50.962;5.340;2024-03-17T11:50:31;5.03;;;0.80;;
40847;SDS011;26570;50.962;5.340;2024-03-17T11:53:16;3.60;;;0.80;;
40847;SDS011;26570;50.962;5.340;2024-03-17T11:56:01;5.47;;;1.10;;
40847;SDS011;26570;50.962;5.340;2024-03-17T11:59:03;3.17;;;1.00;;
40847;SDS011;26570;50.962;5.340;2024-03-17T12:05:00;4.53;;;1.10;;
40847;SDS011;26570;50.962;5.340;2024-03-17T12:08:19;2.97;;;0.70;;
40847;SDS011;26570;50.962;5.340;2024-03-17T12:11:14;4.17;;;0.90;;
40847;SDS011;26570;50.962;5.340;2024-03-17T12:14:16;2.60;;;0.80;;
40847;SDS011;26570;50.962;5.340;2024-03-17T12:17:09;2.23;;;0.70;;
40847;SDS011;26570;50.962;5.340;2024-03-17T12:19:59;2.60;;;0.80;;
40847;SDS011;26570;50.962;5.340;2024-03-17T12:22:45;4.17;;;0.80;;
40847;SDS011;26570;50.962;5.340;2024-03-17T12:25:31;3.67;;;0.90;;
40847;SDS011;26570;50.962;5.340;2024-03-17T12:28:17;3.43;;;0.90;;
40847;SDS011;26570;50.962;5.340;2024-03-17T12:31:03;2.83;;;0.73;;
40847;SDS011;26570;50.962;5.340;2024-03-17T12:33:49;3.37;;;0.70;;
40847;SDS011;26570;50.962;5.340;2024-03-17T12:36:35;2.80;;;0.60;;
40847;SDS011;26570;50.962;5.340;2024-03-17T12:42:11;5.70;;;0.60;;
40847;SDS011;26570;50.962;5.340;2024-03-17T12:45:01;1.70;;;0.50;;
40847;SDS011;26570;50.962;5.340;2024-03-17T12:47:48;2.53;;;0.50;;
40847;SDS011;26570;50.962;5.340;2024-03-17T12:50:35;2.67;;;0.40;;
40847;SDS011;26570;50.962;5.340;2024-03-17T12:53:20;2.37;;;0.50;;
40847;SDS011;26570;50.962;5.340;2024-03-17T12:56:06;1.77;;;0.50;;
40847;SDS011;26570;50.962;5.340;2024-03-17T12:59:10;4.32;;;0.50;;
40847;SDS011;26570;50.962;5.340;2024-03-17T13:05:18;2.38;;;0.60;;
40847;SDS011;26570;50.962;5.340;2024-03-17T13:08:07;2.93;;;0.43;;
40847;SDS011;26570;50.962;5.340;2024-03-17T13:10:53;2.75;;;0.45;;
40847;SDS011;26570;50.962;5.340;2024-03-17T13:13:39;1.33;;;0.50;;
40847;SDS011;26570;50.962;5.340;2024-03-17T13:16:27;3.90;;;0.60;;
40847;SDS011;26570;50.962;5.340;2024-03-17T13:19:14;1.90;;;0.50;;
40847;SDS011;26570;50.962;5.340;2024-03-17T13:21:59;1.70;;;0.40;;
40847;SDS011;26570;50.962;5.340;2024-03-17T13:24:45;3.33;;;0.50;;
40847;SDS011;26570;50.962;5.340;2024-03-17T13:27:54;4.20;;;0.50;;
40847;SDS011;26570;50.962;5.340;2024-03-17T13:30:39;3.27;;;0.60;;
40847;SDS011;26570;50.962;5.340;2024-03-17T13:33:25;2.93;;;1.00;;
40847;SDS011;26570;50.962;5.340;2024-03-17T13:36:11;3.33;;;0.70;;
40847;SDS011;26570;50.962;5.340;2024-03-17T13:38:56;3.47;;;0.52;;
40847;SDS011;26570;50.962;5.340;2024-03-17T13:41:40;2.67;;;0.60;;
40847;SDS011;26570;50.962;5.340;2024-03-17T13:44:25;3.38;;;0.70;;
40847;SDS011;26570;50.962;5.340;2024-03-17T13:47:10;0.98;;;0.40;;
40847;SDS011;26570;50.962;5.340;2024-03-17T13:49:56;1.92;;;0.47;;
40847;SDS011;26570;50.962;5.340;2024-03-17T13:52:42;1.98;;;0.60;;
40847;SDS011;26570;50.962;5.340;2024-03-17T13:55:28;2.55;;;0.40;;
40847;SDS011;26570;50.962;5.340;2024-03-17T13:58:17;2.65;;;0.40;;
40847;SDS011;26570;50.962;5.340;2024-03-17T14:01:02;2.40;;;0.50;;
40847;SDS011;26570;50.962;5.340;2024-03-17T14:03:48;2.67;;;0.57;;
40847;SDS011;26570;50.962;5.340;2024-03-17T14:06:33;4.80;;;0.50;;
40847;SDS011;26570;50.962;5.340;2024-03-17T14:09:41;2.13;;;0.50;;
40847;SDS011;26570;50.962;5.340;2024-03-17T14:12:48;2.43;;;0.40;;
40847;SDS011;26570;50.962;5.340;2024-03-17T14:15:35;3.37;;;0.33;;
40847;SDS011;26570;50.962;5.340;2024-03-17T14:18:20;3.53;;;0.40;;
40847;SDS011;26570;50.962;5.340;2024-03-17T14:21:05;2.73;;;0.30;;
40847;SDS011;26570;50.962;5.340;2024-03-17T14:23:50;1.37;;;0.50;;
40847;SDS011;26570;50.962;5.340;2024-03-17T14:26:36;3.67;;;0.50;;
40847;SDS011;26570;50.962;5.340;2024-03-17T14:29:22;2.67;;;0.40;;
40847;SDS011;26570;50.962;5.340;2024-03-17T14:32:07;3.07;;;0.40;;
40847;SDS011;26570;50.962;5.340;2024-03-17T14:34:53;2.77;;;0.40;;
40847;SDS011;26570;50.962;5.340;2024-03-17T14:37:39;1.80;;;0.40;;
40847;SDS011;26570;50.962;5.340;2024-03-17T14:40:26;2.37;;;0.30;;
40847;SDS011;26570;50.962;5.340;2024-03-17T14:43:13;1.20;;;0.40;;
40847;SDS011;26570;50.962;5.340;2024-03-17T14:45:58;1.33;;;0.40;;
40847;SDS011;26570;50.962;5.340;2024-03-17T14:48:44;2.93;;;0.40;;
40847;SDS011;26570;50.962;5.340;2024-03-17T14:51:29;3.27;;;0.40;;
40847;SDS011;26570;50.962;5.340;2024-03-17T14:54:14;1.80;;;0.50;;
40847;SDS011;26570;50.962;5.340;2024-03-17T14:56:59;3.20;;;0.40;;
40847;SDS011;26570;50.962;5.340;2024-03-17T14:59:45;3.27;;;0.50;;
40847;SDS011;26570;50.962;5.340;2024-03-17T15:02:30;4.23;;;0.47;;
40847;SDS011;26570;50.962;5.340;2024-03-17T15:05:16;2.03;;;0.50;;
40847;SDS011;26570;50.962;5.340;2024-03-17T15:08:06;1.57;;;0.30;;
40847;SDS011;26570;50.962;5.340;2024-03-17T15:10:54;2.20;;;0.40;;
40847;SDS011;26570;50.962;5.340;2024-03-17T15:13:39;4.93;;;0.40;;
40847;SDS011;26570;50.962;5.340;2024-03-17T15:16:26;3.13;;;0.50;;
40847;SDS011;26570;50.962;5.340;2024-03-17T15:19:13;1.40;;;0.30;;
40847;SDS011;26570;50.962;5.340;2024-03-17T15:21:59;3.73;;;0.40;;
40847;SDS011;26570;50.962;5.340;2024-03-17T15:24:44;2.67;;;0.40;;
40847;SDS011;26570;50.962;5.340;2024-03-17T15:27:30;1.20;;;0.30;;
40847;SDS011;26570;50.962;5.340;2024-03-17T15:30:15;1.60;;;0.30;;
40847;SDS011;26570;50.962;5.340;2024-03-17T15:33:06;2.30;;;0.30;;
40847;SDS011;26570;50.962;5.340;2024-03-17T15:35:51;1.97;;;0.30;;
40847;SDS011;26570;50.962;5.340;2024-03-17T15:38:37;1.17;;;0.30;;
40847;SDS011;26570;50.962;5.340;2024-03-17T15:41:22;1.40;;;0.30;;
40847;SDS011;26570;50.962;5.340;2024-03-17T15:44:08;1.53;;;0.30;;
40847;SDS011;26570;50.962;5.340;2024-03-17T15:46:54;1.40;;;0.30;;
40847;SDS011;26570;50.962;5.340;2024-03-17T15:49:39;2.17;;;0.30;;
40847;SDS011;26570;50.962;5.340;2024-03-17T15:52:25;2.97;;;0.37;;
40847;SDS011;26570;50.962;5.340;2024-03-17T15:55:11;2.43;;;0.40;;
40847;SDS011;26570;50.962;5.340;2024-03-17T15:57:56;1.53;;;0.37;;
40847;SDS011;26570;50.962;5.340;2024-03-17T16:00:41;1.80;;;0.40;;
40847;SDS011;26570;50.962;5.340;2024-03-17T16:03:30;4.07;;;0.40;;
40847;SDS011;26570;50.962;5.340;2024-03-17T16:06:39;2.10;;;0.30;;
40847;SDS011;26570;50.962;5.340;2024-03-17T16:09:24;1.90;;;0.40;;
40847;SDS011;26570;50.962;5.340;2024-03-17T16:12:10;4.50;;;0.30;;
40847;SDS011;26570;50.962;5.340;2024-03-17T16:14:55;2.33;;;0.40;;
40847;SDS011;26570;50.962;5.340;2024-03-17T16:17:45;1.30;;;0.50;;
40847;SDS011;26570;50.962;5.340;2024-03-17T16:20:45;2.90;;;0.53;;
40847;SDS011;26570;50.962;5.340;2024-03-17T16:23:58;2.67;;;0.30;;
40847;SDS011;26570;50.962;5.340;2024-03-17T16:26:52;2.30;;;0.37;;
40847;SDS011;26570;50.962;5.340;2024-03-17T16:29:38;1.57;;;0.30;;
40847;SDS011;26570;50.962;5.340;2024-03-17T16:32:23;1.40;;;0.30;;
40847;SDS011;26570;50.962;5.340;2024-03-17T16:35:08;2.00;;;0.47;;
40847;SDS011;26570;50.962;5.340;2024-03-17T16:37:54;1.53;;;0.30;;
40847;SDS011;26570;50.962;5.340;2024-03-17T16:40:39;1.13;;;0.30;;
40847;SDS011;26570;50.962;5.340;2024-03-17T16:49:59;3.07;;;0.30;;
40847;SDS011;26570;50.962;5.340;2024-03-17T16:52:49;2.60;;;0.30;;
40847;SDS011;26570;50.962;5.340;2024-03-17T16:55:34;1.60;;;0.30;;
40847;SDS011;26570;50.962;5.340;2024-03-17T16:58:20;3.80;;;0.30;;
40847;SDS011;26570;50.962;5.340;2024-03-17T17:01:05;2.40;;;0.30;;
40847;SDS011;26570;50.962;5.340;2024-03-17T17:03:50;1.77;;;0.30;;
40847;SDS011;26570;50.962;5.340;2024-03-17T17:06:36;2.10;;;0.30;;
40847;SDS011;26570;50.962;5.340;2024-03-17T17:09:20;1.20;;;0.30;;
40847;SDS011;26570;50.962;5.340;2024-03-17T17:12:06;2.90;;;0.30;;
40847;SDS011;26570;50.962;5.340;2024-03-17T17:14:56;1.43;;;0.30;;
40847;SDS011;26570;50.962;5.340;2024-03-17T17:27:13;5.03;;;0.40;;
40847;SDS011;26570;50.962;5.340;2024-03-17T17:29:58;1.33;;;0.40;;